Time;durP1;ratioP1;P1;durP2;ratioP2;P2;SDS_P1;SDS_P2;PMS_P1;PMS_P2;Temp;Humidity;BMP_temperature;BMP_pressure;BME280_temperature;BME280_humidity;BME280_pressure;Samples;Min_cycle;Max_cycle;Signal;HPM_P1;HPM_P2
2022/04/25 00:00:53;;;;;;;59.20;30.30;;;;;;;11.81;74.23;98915.97;4988192;28;20047;-81
2022/04/25 00:03:20;;;;;;;55.35;28.05;;;;;;;11.81;74.10;98915.97;4991585;28;20093;-81
2022/04/25 00:05:46;;;;;;;56.25;29.90;;;;;;;11.80;74.40;98916.97;4983520;28;20077;-81
2022/04/25 00:08:13;;;;;;;57.08;30.55;;;;;;;11.80;74.16;98924.94;4986657;28;20065;-81
2022/04/25 00:10:40;;;;;;;59.80;30.58;;;;;;;11.80;74.16;98925.75;4987337;28;20524;-81
2022/04/25 00:13:07;;;;;;;58.83;30.15;;;;;;;11.79;74.06;98924.13;4984224;28;20043;-81
2022/04/25 00:15:33;;;;;;;51.72;28.35;;;;;;;11.78;74.25;98921.59;4971962;28;20058;-81
2022/04/25 00:18:00;;;;;;;56.20;28.88;;;;;;;11.77;73.87;98923.44;4990730;28;20042;-81
2022/04/25 00:20:27;;;;;;;53.72;27.33;;;;;;;11.78;74.01;98913.63;4982486;28;20148;-81
2022/04/25 00:22:53;;;;;;;53.25;27.50;;;;;;;11.78;74.09;98921.59;4992746;28;20050;-81
2022/04/25 00:25:20;;;;;;;53.25;27.85;;;;;;;11.77;73.97;98920.78;4985289;28;20057;-81
2022/04/25 00:27:47;;;;;;;50.03;27.38;;;;;;;11.77;74.06;98928.75;4992430;28;20124;-81
2022/04/25 00:30:13;;;;;;;55.83;26.55;;;;;;;11.76;73.70;98921.78;4990451;28;20050;-81
2022/04/25 00:32:40;;;;;;;54.92;28.67;;;;;;;11.76;73.65;98928.94;4982997;28;20603;-81
2022/04/25 00:35:08;;;;;;;54.85;29.67;;;;;;;11.75;73.45;98928.09;4981977;28;20054;-81
2022/04/25 00:37:35;;;;;;;55.03;27.60;;;;;;;11.75;73.44;98925.44;4985735;28;20046;-81
2022/04/25 00:40:02;;;;;;;52.53;27.85;;;;;;;11.73;73.32;98925.63;4987837;28;20046;-81
2022/04/25 00:42:28;;;;;;;52.40;27.25;;;;;;;11.73;72.94;98933.59;4959385;28;20694;-81
2022/04/25 00:44:59;;;;;;;54.83;28.67;;;;;;;11.71;73.04;98929.44;4999160;28;20510;-81
2022/04/25 00:47:26;;;;;;;52.78;26.10;;;;;;;11.70;72.83;98936.59;4969624;28;20148;-81
2022/04/25 00:49:53;;;;;;;50.42;27.55;;;;;;;11.70;72.69;98943.72;4984977;28;20039;-81
2022/04/25 00:52:20;;;;;;;49.00;26.38;;;;;;;11.69;72.81;98944.72;4980347;28;20047;-81
2022/04/25 00:54:47;;;;;;;52.22;27.35;;;;;;;11.69;72.62;98947.38;4989216;28;20046;-81
2022/04/25 00:57:15;;;;;;;56.95;28.35;;;;;;;11.67;72.76;98944.03;4971181;28;20457;-81
2022/04/25 00:59:43;;;;;;;54.92;28.17;;;;;;;11.68;72.79;98937.75;4985344;28;20493;-81
2022/04/25 01:02:10;;;;;;;53.28;28.08;;;;;;;11.66;72.70;98942.41;4967008;28;20039;-81
2022/04/25 01:04:37;;;;;;;55.08;28.90;;;;;;;11.65;72.81;98941.56;4956718;28;20050;-81
2022/04/25 01:07:03;;;;;;;54.17;29.40;;;;;;;11.64;73.03;98945.22;4980737;28;22930;-81
2022/04/25 01:09:30;;;;;;;51.08;27.50;;;;;;;11.62;72.86;98939.22;4986861;28;20456;-80
2022/04/25 01:11:58;;;;;;;52.65;27.73;;;;;;;11.63;72.93;98940.91;4987411;28;20129;-81
2022/04/25 01:14:25;;;;;;;53.88;29.63;;;;;;;11.63;73.03;98940.06;4986904;28;20046;-81
2022/04/25 01:16:52;;;;;;;55.47;29.02;;;;;;;11.62;73.00;98935.72;4970355;28;20454;-80
2022/04/25 01:19:19;;;;;;;50.60;27.88;;;;;;;11.60;73.17;98933.25;4970580;28;20048;-81
2022/04/25 01:21:58;;;;;;;50.83;28.45;;;;;;;11.51;73.24;98943.03;4985810;28;20049;-81
2022/04/25 01:27:18;;;;;;;52.55;28.17;;;;;;;11.58;73.20;98953.03;4975628;28;20417;-81
2022/04/25 01:29:45;;;;;;;51.53;27.63;;;;;;;11.56;73.26;98947.03;5002363;28;20049;-81
2022/04/25 01:32:12;;;;;;;52.47;28.00;;;;;;;11.56;72.96;98945.19;5002129;28;20047;-81
2022/04/25 01:34:39;;;;;;;53.55;28.80;;;;;;;11.57;73.11;98951.34;4987849;28;20066;-81
2022/04/25 01:37:11;;;;;;;58.13;29.20;;;;;;;11.55;73.13;98948.88;4992178;28;20054;-81
2022/04/25 01:39:42;;;;;;;56.83;29.45;;;;;;;11.55;73.20;98953.34;4986573;28;20054;-81
2022/04/25 01:42:09;;;;;;;54.85;29.10;;;;;;;11.56;73.10;98955.84;4987753;28;20049;-81
2022/04/25 01:44:36;;;;;;;49.25;27.48;;;;;;;11.55;72.99;98959.50;4989148;28;20053;-81
2022/04/25 01:47:04;;;;;;;51.35;27.05;;;;;;;11.56;73.02;98960.34;4971072;28;20039;-81
2022/04/25 01:49:32;;;;;;;49.85;27.85;;;;;;;11.55;73.03;98954.19;4984694;28;20043;-81
2022/04/25 01:52:10;;;;;;;51.88;28.17;;;;;;;11.47;73.33;98951.50;4969969;28;20038;-81
2022/04/25 01:54:37;;;;;;;51.15;28.40;;;;;;;11.51;73.28;98956.31;4985380;28;20049;-81
2022/04/25 01:57:04;;;;;;;51.50;28.30;;;;;;;11.52;73.17;98949.19;4980503;28;20050;-81
2022/04/25 01:59:31;;;;;;;54.00;28.65;;;;;;;11.52;73.15;98965.97;4982864;28;20066;-81
2022/04/25 02:02:00;;;;;;;53.92;28.50;;;;;;;11.50;73.20;98957.34;4984297;28;20061;-81
2022/04/25 02:04:27;;;;;;;54.60;27.00;;;;;;;11.51;73.33;98958.97;4984504;28;20170;-81
2022/04/25 02:06:54;;;;;;;52.92;27.30;;;;;;;11.50;73.28;98954.69;4979793;28;20046;-81
2022/04/25 02:09:21;;;;;;;47.85;26.23;;;;;;;11.50;73.03;98960.00;4980895;28;20065;-81
2022/04/25 02:11:48;;;;;;;45.88;26.75;;;;;;;11.51;73.29;98958.16;4956727;28;20046;-80
2022/04/25 02:14:15;;;;;;;51.03;27.40;;;;;;;11.49;72.85;98960.13;4988660;28;20049;-81
2022/04/25 02:16:41;;;;;;;48.20;27.10;;;;;;;11.48;73.20;98964.63;4971357;28;20523;-81
2022/04/25 02:19:08;;;;;;;52.78;26.85;;;;;;;11.48;73.26;98963.81;4985204;28;20050;-81
2022/04/25 02:21:35;;;;;;;46.67;26.02;;;;;;;11.47;73.23;98964.78;4984753;28;20038;-81
2022/04/25 02:24:02;;;;;;;46.22;26.75;;;;;;;11.46;73.05;98971.09;4970906;28;20054;-80
2022/04/25 02:26:30;;;;;;;48.17;25.02;;;;;;;11.45;72.89;98964.97;4983688;28;20557;-81
2022/04/25 02:28:56;;;;;;;53.53;27.88;;;;;;;11.43;72.87;98964.28;4982161;28;20559;-81
2022/04/25 02:31:26;;;;;;;44.40;24.73;;;;;;;11.43;72.77;98974.91;4984049;28;20122;-81
2022/04/25 02:33:53;;;;;;;44.95;24.52;;;;;;;11.42;72.72;98975.94;4981967;28;20427;-80
2022/04/25 02:36:19;;;;;;;45.63;25.23;;;;;;;11.42;72.54;98978.59;4954832;28;20053;-81
2022/04/25 02:38:46;;;;;;;46.45;25.70;;;;;;;11.41;72.62;98974.25;4971086;28;20398;-81
2022/04/25 02:41:13;;;;;;;43.40;24.33;;;;;;;11.41;72.53;98984.06;4984611;28;20046;-80
2022/04/25 02:43:43;;;;;;;43.53;24.70;;;;;;;11.39;72.26;98981.53;4981947;28;20054;-81
2022/04/25 02:46:14;;;;;;;36.80;21.35;;;;;;;11.37;72.45;98982.69;4984474;28;20065;-81
2022/04/25 02:48:43;;;;;;;41.03;23.33;;;;;;;11.37;72.32;98985.34;4984067;28;20058;-81
2022/04/25 02:51:10;;;;;;;41.22;22.23;;;;;;;11.38;72.10;98985.22;4978703;28;20438;-81
2022/04/25 02:53:38;;;;;;;41.92;23.65;;;;;;;11.37;72.32;98982.69;4985340;28;20117;-81
2022/04/25 02:56:05;;;;;;;37.78;21.48;;;;;;;11.36;71.92;98989.84;4968528;28;20130;-81
2022/04/25 02:58:38;;;;;;;40.22;24.25;;;;;;;11.30;71.98;98983.34;4983976;28;20050;-81
2022/04/25 03:01:07;;;;;;;40.13;24.02;;;;;;;11.31;71.96;98992.16;4982939;28;20402;-81
2022/04/25 03:03:36;;;;;;;46.70;24.60;;;;;;;11.29;71.87;98989.66;4968082;28;20129;-81
2022/04/25 03:06:05;;;;;;;42.55;24.25;;;;;;;11.30;71.95;98991.34;4985555;28;20049;-81
2022/04/25 03:08:34;;;;;;;41.35;24.70;;;;;;;11.30;72.16;98993.16;4979907;28;20085;-81
2022/04/25 03:11:04;;;;;;;44.22;24.60;;;;;;;11.28;72.09;98985.34;4985236;28;20049;-81
2022/04/25 03:13:34;;;;;;;46.15;24.85;;;;;;;11.27;72.11;98989.00;4970400;28;20041;-81
2022/04/25 03:16:04;;;;;;;49.92;26.60;;;;;;;11.26;71.99;98995.28;5003664;28;20062;-81
2022/04/25 03:18:32;;;;;;;46.42;26.58;;;;;;;11.25;72.00;98998.94;4983468;28;20379;-81
2022/04/25 03:20:59;;;;;;;47.58;27.30;;;;;;;11.25;71.78;98998.13;4988376;28;20046;-81
2022/04/25 03:23:26;;;;;;;47.58;25.88;;;;;;;11.23;71.61;98995.63;4970792;28;20441;-80
2022/04/25 03:25:53;;;;;;;46.20;26.85;;;;;;;11.22;71.44;98996.63;4985563;28;20049;-81
2022/04/25 03:28:19;;;;;;;49.00;25.73;;;;;;;11.20;71.30;98997.78;4984937;28;20062;-80
2022/04/25 03:30:47;;;;;;;49.00;26.73;;;;;;;11.18;71.22;99005.06;4999654;28;20427;-81
2022/04/25 03:33:15;;;;;;;50.05;26.90;;;;;;;11.16;71.22;99010.53;4968621;28;20501;-80
2022/04/25 03:35:45;;;;;;;61.90;30.67;;;;;;;11.15;71.38;99014.19;4985178;28;20050;-81
2022/04/25 03:38:12;;;;;;;46.80;25.67;;;;;;;11.14;70.95;99017.00;4982731;28;20053;-81
2022/04/25 03:40:40;;;;;;;49.85;27.17;;;;;;;11.12;71.12;99017.19;4968125;28;20046;-79
2022/04/25 03:43:07;;;;;;;46.13;25.58;;;;;;;11.11;71.06;99019.97;4947788;28;20053;-82
2022/04/25 03:45:34;;;;;;;47.83;25.63;;;;;;;11.08;70.91;99021.97;4953420;28;20942;-84
2022/04/25 03:48:03;;;;;;;41.92;24.55;;;;;;;11.08;70.55;99018.47;4971930;28;20413;-83
2022/04/25 03:50:31;;;;;;;49.08;25.23;;;;;;;11.06;70.67;99031.91;4954448;28;20055;-83
2022/04/25 03:53:04;;;;;;;48.55;27.13;;;;;;;11.01;70.31;99036.03;4985317;28;20056;-83
2022/04/25 03:58:18;;;;;;;48.75;26.88;;;;;;;10.98;70.60;99039.84;4933870;28;20042;-84
2022/04/25 04:00:45;;;;;;;48.95;27.58;;;;;;;10.94;70.48;99038.50;4982002;28;20461;-84
2022/04/25 04:03:14;;;;;;;45.90;26.23;;;;;;;10.93;70.83;99042.13;5001635;28;20050;-84
2022/04/25 04:05:42;;;;;;;50.53;26.33;;;;;;;10.92;70.68;99043.13;4984212;28;20034;-85
2022/04/25 04:08:09;;;;;;;49.20;27.42;;;;;;;10.92;70.95;99051.09;4986015;28;20066;-84
2022/04/25 04:10:36;;;;;;;49.20;26.38;;;;;;;10.90;70.97;99050.44;4987188;28;20049;-84
2022/04/25 04:13:05;;;;;;;61.40;27.42;;;;;;;10.89;70.77;99063.84;4999014;28;20474;-84
2022/04/25 04:15:32;;;;;;;55.22;28.08;;;;;;;10.89;70.79;99067.38;4982144;28;20054;-84
2022/04/25 04:17:59;;;;;;;51.10;26.67;;;;;;;10.86;71.00;99065.00;4976207;28;20433;-84
2022/04/25 04:20:27;;;;;;;49.30;26.67;;;;;;;10.85;70.75;99066.00;4970676;28;20035;-84
2022/04/25 04:22:54;;;;;;;51.00;26.67;;;;;;;10.85;71.14;99071.31;4995453;28;20409;-84
2022/04/25 04:25:22;;;;;;;50.33;26.40;;;;;;;10.83;70.95;99067.97;4985689;28;20042;-84
2022/04/25 04:27:49;;;;;;;51.25;26.15;;;;;;;10.82;70.82;99066.31;4952545;28;20043;-84
2022/04/25 04:30:18;;;;;;;48.97;25.60;;;;;;;10.80;70.66;99079.75;4988401;28;20076;-84
2022/04/25 04:32:45;;;;;;;49.70;26.05;;;;;;;10.81;70.74;99081.41;4984111;28;20143;-84
2022/04/25 04:36:17;;;;;;;51.60;27.15;;;;;;;10.76;70.81;99081.06;4985495;28;20517;-84
2022/04/25 04:38:05;;;;;;;55.53;28.10;;;;;;;10.78;70.97;99088.84;4983532;28;20066;-84
2022/04/25 04:40:32;;;;;;;52.17;26.85;;;;;;;10.69;71.15;99092.44;4983047;28;20046;-84
2022/04/25 04:42:59;;;;;;;51.60;26.75;;;;;;;10.71;70.56;99096.63;4985150;28;20060;-84
2022/04/25 04:45:26;;;;;;;53.08;27.95;;;;;;;10.72;70.34;99095.63;4966785;28;20077;-84
2022/04/25 04:47:54;;;;;;;50.33;25.88;;;;;;;10.65;70.42;99089.25;4965805;28;20085;-84
2022/04/25 04:50:20;;;;;;;51.50;24.88;;;;;;;10.64;70.28;99101.69;4983923;28;20049;-84
2022/04/25 04:52:53;;;;;;;50.20;26.90;;;;;;;10.52;70.14;99102.94;4987305;28;20134;-84
2022/04/25 04:55:19;;;;;;;48.63;24.77;;;;;;;10.54;70.47;99102.78;4971503;28;20054;-84
2022/04/25 04:57:47;;;;;;;44.17;23.63;;;;;;;10.52;70.52;99100.28;4971429;28;20046;-84
2022/04/25 05:00:15;;;;;;;48.67;24.67;;;;;;;10.57;70.60;99099.81;4981323;28;20054;-84
2022/04/25 05:02:43;;;;;;;49.47;24.92;;;;;;;10.48;70.75;99096.28;5001902;28;20046;-84
2022/04/25 05:05:14;;;;;;;51.53;25.30;;;;;;;10.53;70.72;99091.34;4987340;28;20038;-84
2022/04/25 05:07:41;;;;;;;47.00;23.73;;;;;;;10.55;70.66;99104.44;4985773;28;20046;-84
2022/04/25 05:10:09;;;;;;;47.10;24.48;;;;;;;10.56;70.39;99112.25;4986725;28;20038;-84
2022/04/25 05:12:48;;;;;;;46.80;25.27;;;;;;;10.48;70.25;99119.31;4973654;28;20482;-84
2022/04/25 05:15:15;;;;;;;47.25;24.15;;;;;;;10.55;70.41;99123.84;4981527;28;20138;-84
2022/04/25 05:17:43;;;;;;;44.00;23.17;;;;;;;10.55;70.27;99126.50;4970841;28;20129;-84
2022/04/25 05:20:11;;;;;;;46.70;24.13;;;;;;;10.40;70.39;99130.69;4968827;28;20046;-84
2022/04/25 05:22:40;;;;;;;50.67;24.95;;;;;;;10.40;70.59;99133.34;5001797;28;20085;-84
2022/04/25 05:25:07;;;;;;;53.85;26.52;;;;;;;10.39;70.60;99139.66;4983798;28;20050;-84
2022/04/25 05:27:34;;;;;;;48.85;25.90;;;;;;;10.42;70.56;99142.81;4953801;28;20042;-84
2022/04/25 05:30:01;;;;;;;49.80;25.33;;;;;;;10.47;70.53;99150.34;4991399;28;20046;-84
2022/04/25 05:32:40;;;;;;;48.90;24.92;;;;;;;10.42;70.29;99155.25;4982504;28;20070;-84
2022/04/25 05:35:07;;;;;;;48.05;24.05;;;;;;;10.51;70.11;99150.88;4957677;28;20050;-84
2022/04/25 05:37:34;;;;;;;43.78;22.90;;;;;;;10.53;70.18;99148.88;4971281;28;20084;-84
2022/04/25 05:40:01;;;;;;;46.85;24.80;;;;;;;10.55;70.16;99146.91;4989324;28;20046;-84
2022/04/25 05:42:29;;;;;;;49.50;24.33;;;;;;;10.56;70.22;99148.59;4951273;28;20043;-84
2022/04/25 05:44:57;;;;;;;51.67;25.73;;;;;;;10.57;70.42;99155.56;4987423;28;20054;-84
2022/04/25 05:47:23;;;;;;;60.30;27.17;;;;;;;10.56;70.26;99151.25;4988027;28;20050;-84
2022/04/25 05:52:36;;;;;;;49.53;25.88;;;;;;;10.54;69.98;99158.53;4981550;28;20130;-84
2022/04/25 05:55:03;;;;;;;50.03;24.70;;;;;;;10.56;70.19;99156.56;4946007;28;20047;-84
2022/04/25 05:57:30;;;;;;;53.55;26.88;;;;;;;10.57;70.15;99158.22;4947241;28;20122;-85
2022/04/25 05:59:56;;;;;;;52.35;27.08;;;;;;;10.58;70.26;99163.41;4957304;28;20055;-84
2022/04/25 06:02:23;;;;;;;52.53;26.27;;;;;;;10.60;70.54;99163.22;4949007;28;20043;-84
2022/04/25 06:04:50;;;;;;;54.33;26.83;;;;;;;10.65;70.33;99158.28;4948056;28;20639;-84
2022/04/25 06:07:17;;;;;;;54.78;27.40;;;;;;;10.67;70.28;99166.94;4970887;28;20572;-84
2022/04/25 06:09:43;;;;;;;55.60;26.40;;;;;;;10.69;70.28;99164.97;4958592;28;20447;-84
2022/04/25 06:12:10;;;;;;;61.55;28.30;;;;;;;10.65;70.23;99167.09;4970245;28;20042;-84
2022/04/25 06:14:38;;;;;;;52.28;26.38;;;;;;;10.70;70.26;99168.47;4968938;28;20170;-84
2022/04/25 06:17:04;;;;;;;49.67;25.98;;;;;;;10.72;70.02;99169.13;4969292;28;20070;-84
2022/04/25 06:19:32;;;;;;;49.25;25.67;;;;;;;10.72;70.26;99172.63;4966845;28;20038;-84
2022/04/25 06:21:59;;;;;;;51.78;27.90;;;;;;;10.75;70.04;99172.31;4983579;28;20060;-84
2022/04/25 06:24:27;;;;;;;49.38;25.52;;;;;;;10.79;70.09;99172.84;4979490;28;20395;-84
2022/04/25 06:26:55;;;;;;;50.03;25.95;;;;;;;10.84;70.42;99168.75;4951119;28;20056;-84
2022/04/25 06:29:24;;;;;;;50.90;27.42;;;;;;;10.91;70.29;99170.78;4983128;28;20042;-85
2022/04/25 06:31:52;;;;;;;48.53;26.48;;;;;;;10.96;70.34;99173.81;4981343;28;20072;-84
2022/04/25 06:34:20;;;;;;;52.42;25.90;;;;;;;10.97;70.20;99181.63;4981937;28;20047;-84
2022/04/25 06:36:50;;;;;;;49.53;26.77;;;;;;;10.97;70.14;99184.28;4982549;28;20061;-83
2022/04/25 06:39:16;;;;;;;49.63;25.90;;;;;;;10.96;70.05;99187.09;4996960;28;20046;-83
2022/04/25 06:41:43;;;;;;;52.00;26.67;;;;;;;10.99;70.50;99194.75;4967269;28;20053;-83
2022/04/25 06:44:10;;;;;;;52.58;26.95;;;;;;;10.99;70.36;99200.06;4984353;28;20046;-84
2022/04/25 06:46:36;;;;;;;50.47;26.77;;;;;;;10.98;70.26;99199.22;4952796;28;20042;-83
2022/04/25 06:51:56;;;;;;;48.92;25.27;;;;;;;10.91;70.43;99200.00;4992436;28;20057;-83
2022/04/25 06:54:26;;;;;;;56.63;27.27;;;;;;;10.96;70.77;99200.38;4965782;28;20053;-83
2022/04/25 06:56:54;;;;;;;48.83;25.67;;;;;;;10.99;70.47;99214.19;4948466;28;20039;-84
2022/04/25 06:59:21;;;;;;;54.50;26.88;;;;;;;10.99;70.25;99213.34;4943757;28;20046;-83
2022/04/25 07:01:49;;;;;;;57.08;27.02;;;;;;;10.96;70.22;99208.34;4964339;28;20498;-84
2022/04/25 07:04:17;;;;;;;56.10;27.98;;;;;;;10.98;70.33;99209.84;4952393;28;20047;-83
2022/04/25 07:06:45;;;;;;;49.17;27.80;;;;;;;10.95;70.58;99207.50;4963339;28;20120;-83
2022/04/25 07:09:17;;;;;;;171.38;67.47;;;;;;;10.96;70.64;99206.50;4961905;28;20043;-83
2022/04/25 07:11:44;;;;;;;81.07;37.38;;;;;;;10.97;70.82;99208.19;4953600;28;20395;-83
2022/04/25 07:14:17;;;;;;;57.15;28.52;;;;;;;10.96;70.83;99209.16;4932449;28;22345;-82
2022/04/25 07:16:45;;;;;;;59.53;29.50;;;;;;;11.02;70.93;99208.56;4967027;28;20061;-82
2022/04/25 07:19:19;;;;;;;58.15;27.60;;;;;;;11.02;70.98;99203.25;4949698;28;20101;-83
2022/04/25 07:30:05;;;;;;;51.78;25.88;;;;;;;11.04;71.15;99203.09;4974970;28;20052;-84
2022/04/25 07:32:32;;;;;;;54.03;26.13;;;;;;;11.07;71.18;99202.81;4968269;28;20053;-84
2022/04/25 07:35:02;;;;;;;48.50;25.17;;;;;;;11.08;71.57;99194.66;4984829;28;20125;-84
2022/04/25 07:37:29;;;;;;;45.97;25.25;;;;;;;11.14;71.33;99195.03;4981441;28;20042;-84
2022/04/25 07:39:56;;;;;;;41.95;23.77;;;;;;;11.16;71.24;99188.56;4982842;28;20054;-84
2022/04/25 07:42:23;;;;;;;49.67;26.52;;;;;;;11.16;71.30;99185.91;4935454;28;20049;-84
2022/04/25 07:44:49;;;;;;;45.03;24.60;;;;;;;11.16;71.00;99188.56;4971028;28;20061;-85
2022/04/25 07:47:16;;;;;;;45.17;25.10;;;;;;;11.18;71.07;99185.78;4991598;28;20108;-83
2022/04/25 07:49:43;;;;;;;31.52;18.98;;;;;;;11.18;71.00;99196.41;4956696;28;20038;-84
2022/04/25 07:52:13;;;;;;;42.83;24.02;;;;;;;11.17;71.18;99200.88;4975851;28;20046;-84
2022/04/25 07:54:40;;;;;;;44.42;22.63;;;;;;;11.20;70.75;99202.41;4971213;28;21066;-84
2022/04/25 07:57:07;;;;;;;40.25;23.08;;;;;;;11.23;70.85;99204.75;4975429;28;20095;-84
2022/04/25 07:59:34;;;;;;;44.72;22.08;;;;;;;11.27;71.05;99200.75;4974825;28;20042;-84
2022/04/25 08:02:02;;;;;;;35.97;21.23;;;;;;;11.34;70.56;99201.81;4969747;28;20054;-84
2022/04/25 08:04:29;;;;;;;44.33;21.90;;;;;;;11.36;70.92;99206.97;4985179;28;20053;-84
2022/04/25 08:06:56;;;;;;;37.22;21.75;;;;;;;11.38;71.19;99205.00;4970204;28;20054;-84
2022/04/25 08:09:23;;;;;;;41.45;21.52;;;;;;;11.44;71.13;99199.06;4986986;28;20082;-84
2022/04/25 08:17:56;;;;;;;35.70;20.25;;;;;;;11.49;70.70;99200.25;4986207;28;20046;-84
2022/04/25 08:20:08;;;;;;;31.20;18.52;;;;;;;11.59;70.11;99196.66;4984527;28;20052;-84
2022/04/25 08:22:36;;;;;;;28.30;17.38;;;;;;;11.62;69.73;99204.31;4982518;28;20042;-84
2022/04/25 08:25:04;;;;;;;26.02;15.10;;;;;;;11.64;69.67;99205.00;4977099;28;20042;-86
2022/04/25 08:27:31;;;;;;;29.02;17.08;;;;;;;11.69;69.84;99211.50;4984975;28;20056;-87
2022/04/25 08:29:58;;;;;;;29.90;17.30;;;;;;;11.72;69.91;99205.03;4982361;28;20050;-86
2022/04/25 08:32:25;;;;;;;33.70;19.17;;;;;;;11.78;70.28;99206.22;4954382;28;20042;-87
2022/04/25 08:34:52;;;;;;;30.88;18.38;;;;;;;11.81;70.06;99216.56;4987331;28;20042;-87
2022/04/25 08:37:18;;;;;;;30.67;18.40;;;;;;;11.85;69.42;99218.72;4985830;28;20065;-87
2022/04/25 08:39:45;;;;;;;28.08;17.55;;;;;;;11.86;69.23;99216.91;4986956;28;20549;-87
2022/04/25 08:42:12;;;;;;;27.40;16.73;;;;;;;11.94;68.65;99216.97;4971358;28;20125;-87
2022/04/25 08:45:00;;;;;;;28.42;16.88;;;;;;;11.90;69.42;99213.78;4927350;28;20059;-87
2022/04/25 08:47:29;;;;;;;27.85;16.52;;;;;;;11.95;69.45;99216.78;4983745;28;20093;-87
2022/04/25 08:49:58;;;;;;;28.27;17.38;;;;;;;11.97;69.36;99218.47;4985666;28;20058;-87
2022/04/25 08:52:28;;;;;;;28.85;16.92;;;;;;;11.92;68.62;99210.97;4971037;28;20468;-87
2022/04/25 08:54:56;;;;;;;24.88;16.58;;;;;;;11.95;68.58;99213.31;4982274;28;20096;-87
2022/04/25 08:57:25;;;;;;;28.52;18.13;;;;;;;11.95;68.58;99219.47;4969860;28;20046;-87
2022/04/25 08:59:55;;;;;;;30.05;16.30;;;;;;;11.95;68.32;99221.28;4970628;28;20482;-88
2022/04/25 09:02:24;;;;;;;30.33;17.63;;;;;;;11.96;68.62;99222.97;4950129;28;20053;-88
2022/04/25 09:04:51;;;;;;;30.08;16.50;;;;;;;12.05;68.89;99227.31;4966723;28;20117;-88
2022/04/25 09:07:25;;;;;;;26.70;16.58;;;;;;;12.03;69.08;99231.13;4970597;28;20038;-87
2022/04/25 09:09:52;;;;;;;29.00;15.75;;;;;;;12.10;68.72;99229.50;4987683;28;20271;-88
2022/04/25 09:12:19;;;;;;;22.40;13.65;;;;;;;12.11;69.02;99224.03;4949939;28;20050;-87
2022/04/25 09:14:47;;;;;;;25.27;14.90;;;;;;;12.15;68.84;99220.03;4985941;28;20525;-88
2022/04/25 09:17:38;;;;;;;26.52;16.10;;;;;;;12.14;68.99;99226.38;4956757;28;20046;-88
2022/04/25 09:20:07;;;;;;;26.25;15.82;;;;;;;12.13;67.94;99221.19;4985883;28;20061;-88
2022/04/25 09:22:36;;;;;;;25.65;14.85;;;;;;;12.15;67.83;99238.66;4982081;28;20041;-87
2022/04/25 09:25:08;;;;;;;22.58;15.00;;;;;;;12.15;67.66;99235.19;4959349;28;20046;-87
2022/04/25 09:28:12;;;;;;;22.10;14.63;;;;;;;12.10;67.55;99243.63;4937796;28;20358;-87
2022/04/25 09:30:54;;;;;;;22.05;14.10;;;;;;;12.12;67.24;99240.84;4956189;28;20049;-88
2022/04/25 09:33:22;;;;;;;19.05;12.10;;;;;;;12.21;66.89;99249.66;4941521;28;20070;-87
2022/04/25 09:35:54;;;;;;;19.40;12.70;;;;;;;12.19;67.06;99244.53;4941824;28;20061;-86
2022/04/25 09:38:30;;;;;;;19.90;13.02;;;;;;;12.22;67.68;99246.03;4972226;28;20041;-88
2022/04/25 09:40:56;;;;;;;21.05;12.98;;;;;;;12.32;67.34;99249.41;4976682;28;20132;-87
2022/04/25 09:43:29;;;;;;;24.85;12.98;;;;;;;12.31;66.46;99245.03;4973362;28;20042;-87
2022/04/25 09:46:04;;;;;;;19.30;11.60;;;;;;;12.31;66.38;99242.38;4969647;28;20360;-87
2022/04/25 09:48:31;;;;;;;22.02;13.02;;;;;;;12.40;66.97;99241.44;4986939;28;20066;-88
2022/04/25 09:51:03;;;;;;;19.42;12.85;;;;;;;12.40;66.50;99238.75;4966603;28;20049;-87
2022/04/25 09:53:46;;;;;;;17.95;11.23;;;;;;;12.32;65.91;99249.41;4983225;28;20454;-87
2022/04/25 09:56:16;;;;;;;18.90;11.27;;;;;;;12.42;66.13;99243.94;4983740;28;20100;-88
2022/04/25 09:58:44;;;;;;;17.55;10.52;;;;;;;12.44;66.35;99237.47;4958676;28;20457;-87
2022/04/25 10:01:12;;;;;;;16.48;11.55;;;;;;;12.44;66.23;99241.94;4983061;28;20520;-87
2022/04/25 10:03:39;;;;;;;17.30;12.30;;;;;;;12.43;66.62;99245.59;4971421;28;20038;-88
2022/04/25 10:06:07;;;;;;;19.13;12.48;;;;;;;12.45;66.50;99248.94;4957334;28;20046;-87
2022/04/25 10:08:35;;;;;;;16.58;11.02;;;;;;;12.47;66.62;99249.63;4983950;28;20073;-87
2022/04/25 10:11:04;;;;;;;18.88;12.63;;;;;;;12.56;66.19;99254.78;4958839;28;20108;-88
2022/04/25 10:13:31;;;;;;;15.65;11.07;;;;;;;12.57;65.99;99247.66;4948498;28;20042;-88
2022/04/25 10:15:59;;;;;;;13.65;10.45;;;;;;;12.61;66.43;99251.63;4953959;28;20047;-88
2022/04/25 10:18:27;;;;;;;15.50;11.45;;;;;;;12.62;65.77;99252.44;4950634;28;20073;-88
2022/04/25 10:20:53;;;;;;;15.35;10.65;;;;;;;12.60;65.39;99253.47;4986255;28;20065;-88
2022/04/25 10:23:20;;;;;;;16.05;11.18;;;;;;;12.62;65.97;99253.31;4975896;28;20042;-88
2022/04/25 10:25:55;;;;;;;15.40;10.85;;;;;;;12.57;65.00;99251.13;4976487;28;20057;-88
2022/04/25 10:28:29;;;;;;;15.88;11.20;;;;;;;12.64;65.24;99243.31;4951493;28;20493;-87
2022/04/25 10:31:07;;;;;;;16.85;11.10;;;;;;;12.70;65.00;99250.66;4952903;28;20046;-88
2022/04/25 10:33:55;;;;;;;18.83;11.45;;;;;;;12.64;64.50;99245.97;4951237;28;20034;-89
2022/04/25 10:36:37;;;;;;;19.73;13.00;;;;;;;12.65;64.47;99245.00;4965694;28;20046;-88
2022/04/25 10:39:19;;;;;;;17.10;12.20;;;;;;;12.62;64.02;99242.66;4976514;28;20537;-88
2022/04/25 10:44:42;;;;;;;17.45;11.82;;;;;;;12.68;64.60;99236.66;4964146;28;20100;-88
2022/04/25 10:47:13;;;;;;;18.63;13.48;;;;;;;12.65;64.56;99238.84;4966355;28;20038;-88
2022/04/25 10:49:46;;;;;;;19.02;12.25;;;;;;;12.67;64.11;99242.16;4966762;28;20046;-89
2022/04/25 10:52:31;;;;;;;17.25;12.20;;;;;;;12.59;63.70;99257.13;4948247;28;20045;-88
2022/04/25 10:55:19;;;;;;;20.50;10.50;;;;;;;12.59;63.67;99254.47;4933590;28;20437;-88
2022/04/25 10:58:01;;;;;;;12.82;9.57;;;;;;;12.60;64.19;99252.63;4926844;28;20046;-88
2022/04/25 11:00:40;;;;;;;17.40;12.18;;;;;;;12.65;63.92;99262.81;4964590;28;20043;-87
2022/04/25 11:03:10;;;;;;;21.90;12.23;;;;;;;12.74;64.03;99253.81;4996895;28;20053;-88
2022/04/25 11:05:41;;;;;;;17.35;12.60;;;;;;;12.78;63.37;99256.00;4967103;28;20560;-88
2022/04/25 11:08:22;;;;;;;17.33;11.63;;;;;;;12.74;61.75;99261.81;4996743;28;20047;-87
2022/04/25 11:10:53;;;;;;;16.60;10.77;;;;;;;12.82;62.80;99260.00;4984374;28;20046;-87
2022/04/25 11:13:22;;;;;;;16.13;11.80;;;;;;;12.82;62.69;99260.00;4984889;28;20050;-87
2022/04/25 11:15:50;;;;;;;17.20;11.75;;;;;;;12.84;63.31;99262.50;4978862;28;20553;-87
2022/04/25 11:18:37;;;;;;;17.33;11.38;;;;;;;12.85;62.93;99263.31;4961787;28;20384;-87
2022/04/25 11:21:16;;;;;;;18.77;9.82;;;;;;;12.85;61.39;99273.97;4963206;28;20388;-88
2022/04/25 11:23:45;;;;;;;14.60;9.60;;;;;;;12.88;61.47;99266.50;4972288;28;20049;-82
2022/04/25 11:26:21;;;;;;;12.63;9.38;;;;;;;12.83;60.89;99268.84;4985812;28;20052;-82
2022/04/25 11:28:54;;;;;;;15.00;9.70;;;;;;;12.84;60.61;99269.66;4992700;28;20042;-83
2022/04/25 11:31:23;;;;;;;12.98;9.68;;;;;;;12.87;61.05;99269.31;4986698;28;20514;-82
2022/04/25 11:33:53;;;;;;;14.00;8.98;;;;;;;12.88;61.23;99269.16;4983298;28;20046;-85
2022/04/25 11:36:22;;;;;;;15.35;9.10;;;;;;;12.90;61.83;99272.50;4965137;28;20105;-84
2022/04/25 11:41:37;;;;;;;15.25;9.05;;;;;;;12.92;62.61;99275.81;4984639;28;20046;-84
2022/04/25 11:44:06;;;;;;;10.82;8.38;;;;;;;12.94;62.00;99271.16;4982469;28;20068;-85
2022/04/25 11:46:36;;;;;;;10.45;8.30;;;;;;;12.99;62.00;99278.66;4971004;28;20038;-83
2022/04/25 11:49:06;;;;;;;12.32;8.40;;;;;;;13.02;62.09;99273.84;4957150;28;20060;-83
2022/04/25 11:51:35;;;;;;;11.93;9.02;;;;;;;13.07;62.24;99265.34;4951043;28;20042;-84
2022/04/25 11:54:06;;;;;;;11.65;8.80;;;;;;;13.11;62.08;99276.53;4968852;28;20042;-84
2022/04/25 11:56:36;;;;;;;13.63;8.75;;;;;;;13.14;62.44;99278.84;4999552;28;20043;-84